createdAt,value
2018-08-25T00:00:12.227Z,0.00
2018-08-25T00:01:12.252Z,0.00
2018-08-25T00:02:12.207Z,0.00
2018-08-25T00:03:12.202Z,0.00
2018-08-25T00:04:12.189Z,0.00
2018-08-25T00:05:12.176Z,0.00
2018-08-25T00:06:12.165Z,0.00
2018-08-25T00:07:12.156Z,0.00
2018-08-25T00:08:12.149Z,0.00
2018-08-25T00:09:12.139Z,0.00
2018-08-25T00:10:12.125Z,0.00
2018-08-25T00:11:12.117Z,0.00
2018-08-25T00:12:12.109Z,0.00
2018-08-25T00:13:12.093Z,0.00
2018-08-25T00:14:12.089Z,0.00
2018-08-25T00:15:12.077Z,0.00
2018-08-25T00:16:12.061Z,0.00
2018-08-25T00:17:12.058Z,0.00
2018-08-25T00:18:12.041Z,0.00
2018-08-25T00:19:12.031Z,0.00
2018-08-25T00:20:12.025Z,0.00
2018-08-25T00:21:12.010Z,0.00
2018-08-25T00:22:11.998Z,0.00
2018-08-25T00:23:11.991Z,0.00
2018-08-25T00:24:11.981Z,0.00
2018-08-25T00:25:11.970Z,0.00
2018-08-25T00:26:11.961Z,0.00
2018-08-25T00:27:11.951Z,0.00
2018-08-25T00:28:11.937Z,0.00
2018-08-25T00:29:11.929Z,0.00
2018-08-25T00:30:11.917Z,0.00
2018-08-25T00:31:11.909Z,0.00
2018-08-25T00:32:11.893Z,0.00
2018-08-25T00:33:11.885Z,0.00
2018-08-25T00:34:11.877Z,0.00
2018-08-25T00:35:11.872Z,0.00
2018-08-25T00:36:11.862Z,0.00
2018-08-25T00:37:11.850Z,0.00
2018-08-25T00:38:11.842Z,0.00
2018-08-25T00:39:11.828Z,0.00
2018-08-25T00:40:11.829Z,0.00
2018-08-25T00:41:11.807Z,0.00
2018-08-25T00:42:11.795Z,0.00
2018-08-25T00:43:11.785Z,0.00
2018-08-25T00:44:11.774Z,0.00
2018-08-25T00:45:11.765Z,0.00
2018-08-25T00:46:11.753Z,0.00
2018-08-25T00:47:11.742Z,0.00
2018-08-25T00:48:11.736Z,0.00
2018-08-25T00:49:11.745Z,0.00
2018-08-25T00:50:11.723Z,0.00
2018-08-25T00:51:11.704Z,0.00
2018-08-25T00:52:11.698Z,0.00
2018-08-25T00:53:11.684Z,0.00
2018-08-25T00:54:11.675Z,0.00
2018-08-25T00:55:11.665Z,0.00
2018-08-25T00:56:11.647Z,0.00
2018-08-25T00:57:11.646Z,0.00
2018-08-25T00:58:11.643Z,0.00
2018-08-25T00:59:11.648Z,0.00
2018-08-25T01:00:11.609Z,0.00
2018-08-25T01:01:11.596Z,0.00
2018-08-25T01:02:11.588Z,0.00
2018-08-25T01:03:11.578Z,0.00
2018-08-25T01:04:11.560Z,0.00
2018-08-25T01:05:11.560Z,0.00
2018-08-25T01:06:11.548Z,0.00
2018-08-25T01:07:11.539Z,0.00
2018-08-25T01:08:11.521Z,0.00
2018-08-25T01:09:11.515Z,0.00
2018-08-25T01:10:11.494Z,0.00
2018-08-25T01:11:11.492Z,0.00
2018-08-25T01:12:11.482Z,0.00
2018-08-25T01:13:11.470Z,0.00
2018-08-25T01:14:11.462Z,0.00
2018-08-25T01:15:11.454Z,0.00
2018-08-25T01:16:11.438Z,0.00
2018-08-25T01:17:11.429Z,0.00
2018-08-25T01:18:11.417Z,0.00
2018-08-25T01:19:11.405Z,0.00
2018-08-25T01:20:11.389Z,0.00
2018-08-25T01:21:11.387Z,0.00
2018-08-25T01:22:11.373Z,0.00
2018-08-25T01:23:11.364Z,0.00
2018-08-25T01:24:11.343Z,0.00
2018-08-25T01:25:11.346Z,0.00
2018-08-25T01:26:11.329Z,0.00
2018-08-25T01:27:11.324Z,0.00
2018-08-25T01:28:11.310Z,0.00
2018-08-25T01:29:11.302Z,0.00
2018-08-25T01:30:11.284Z,0.00
2018-08-25T01:31:11.275Z,0.00
2018-08-25T01:32:11.273Z,0.00
2018-08-25T01:33:11.257Z,0.00
2018-08-25T01:34:11.241Z,0.00
2018-08-25T01:35:11.237Z,0.00
2018-08-25T01:36:11.224Z,0.00
2018-08-25T01:37:11.219Z,0.00
2018-08-25T01:38:11.205Z,0.00
2018-08-25T01:39:11.191Z,0.00
2018-08-25T01:40:11.185Z,0.00
2018-08-25T01:41:11.173Z,0.00
2018-08-25T01:42:11.161Z,0.00
2018-08-25T01:43:11.147Z,0.00
2018-08-25T01:44:11.135Z,0.00
2018-08-25T01:45:11.124Z,0.00
2018-08-25T01:46:11.118Z,0.00
2018-08-25T01:47:11.106Z,0.00
2018-08-25T01:48:11.098Z,0.00
2018-08-25T01:49:11.086Z,0.00
2018-08-25T01:50:11.081Z,0.00
2018-08-25T01:51:11.059Z,0.00
2018-08-25T01:52:11.051Z,0.00
2018-08-25T01:53:11.043Z,0.00
2018-08-25T01:54:11.035Z,0.00
2018-08-25T01:55:11.021Z,0.00
2018-08-25T01:56:11.016Z,0.00
2018-08-25T01:57:11.007Z,0.00
2018-08-25T01:58:10.989Z,0.00
2018-08-25T01:59:10.978Z,0.00
2018-08-25T02:00:10.965Z,0.00
2018-08-25T02:01:10.957Z,0.00
2018-08-25T02:02:10.948Z,0.00
2018-08-25T02:03:10.932Z,0.00
2018-08-25T02:04:10.928Z,0.00
2018-08-25T02:05:10.906Z,0.00
2018-08-25T02:06:10.902Z,0.00
2018-08-25T02:07:10.896Z,0.00
2018-08-25T02:08:10.880Z,0.00
2018-08-25T02:09:10.869Z,0.00
2018-08-25T02:10:10.863Z,0.00
2018-08-25T02:11:10.847Z,0.00
2018-08-25T02:12:10.838Z,0.00
2018-08-25T02:13:10.826Z,0.00
2018-08-25T02:14:10.818Z,0.00
2018-08-25T02:15:10.810Z,0.00
2018-08-25T02:16:10.794Z,0.00
2018-08-25T02:17:10.785Z,0.00
2018-08-25T02:18:10.772Z,0.00
2018-08-25T02:19:10.763Z,0.00
2018-08-25T02:20:10.761Z,0.00
2018-08-25T02:21:10.743Z,0.00
2018-08-25T02:22:10.728Z,0.00
2018-08-25T02:23:10.723Z,0.00
2018-08-25T02:24:10.717Z,0.00
2018-08-25T02:25:10.700Z,0.00
2018-08-25T02:26:10.685Z,0.00
2018-08-25T02:27:10.678Z,0.00
2018-08-25T02:28:10.692Z,0.00
2018-08-25T02:29:10.653Z,0.00
2018-08-25T02:30:10.647Z,0.00
2018-08-25T02:31:10.638Z,0.00
2018-08-25T02:32:10.632Z,0.00
2018-08-25T02:33:10.619Z,0.00
2018-08-25T02:34:10.603Z,0.00
2018-08-25T02:35:10.588Z,0.00
2018-08-25T02:36:10.581Z,0.00
2018-08-25T02:37:10.571Z,0.00
2018-08-25T02:38:10.565Z,0.00
2018-08-25T02:39:10.549Z,0.00
2018-08-25T02:40:10.540Z,0.00
2018-08-25T02:41:10.525Z,0.00
2018-08-25T02:42:10.515Z,0.00
2018-08-25T02:43:10.518Z,0.00
2018-08-25T02:44:10.494Z,0.00
2018-08-25T02:45:10.484Z,0.00
2018-08-25T02:46:10.473Z,0.00
2018-08-25T02:47:10.464Z,0.00
2018-08-25T02:48:10.462Z,0.00
2018-08-25T02:49:10.444Z,0.00
2018-08-25T02:50:10.431Z,0.00
2018-08-25T02:51:10.420Z,0.00
2018-08-25T02:52:10.414Z,0.00
2018-08-25T02:53:10.407Z,0.00
2018-08-25T02:54:10.385Z,0.00
2018-08-25T02:55:10.381Z,0.00
2018-08-25T02:56:10.371Z,0.00
2018-08-25T02:57:10.361Z,0.00
2018-08-25T02:58:10.347Z,0.00
2018-08-25T02:59:10.337Z,0.00
2018-08-25T03:00:10.325Z,0.00
2018-08-25T03:01:10.318Z,0.00
2018-08-25T03:02:10.301Z,0.00
2018-08-25T03:03:10.296Z,0.00
2018-08-25T03:04:10.286Z,0.00
2018-08-25T03:05:10.276Z,0.00
2018-08-25T03:06:10.262Z,0.00
2018-08-25T03:07:10.253Z,0.00
2018-08-25T03:08:10.245Z,0.00
2018-08-25T03:09:10.238Z,0.00
2018-08-25T03:10:10.224Z,0.00
2018-08-25T03:11:10.214Z,0.00
2018-08-25T03:12:10.201Z,0.00
2018-08-25T03:13:10.197Z,0.00
2018-08-25T03:14:10.177Z,0.00
2018-08-25T03:15:10.170Z,0.00
2018-08-25T03:16:10.161Z,0.00
2018-08-25T03:17:10.148Z,0.00
2018-08-25T03:18:10.140Z,0.00
2018-08-25T03:19:10.121Z,0.00
2018-08-25T03:20:10.113Z,0.00
2018-08-25T03:21:10.103Z,0.00
2018-08-25T03:22:10.096Z,0.00
2018-08-25T03:23:10.078Z,0.00
2018-08-25T03:24:10.071Z,0.00
2018-08-25T03:25:10.061Z,0.00
2018-08-25T03:26:10.051Z,0.00
2018-08-25T03:27:10.052Z,0.00
2018-08-25T03:28:10.034Z,0.00
2018-08-25T03:29:10.022Z,0.00
2018-08-25T03:30:10.011Z,0.00
2018-08-25T03:31:09.998Z,0.00
2018-08-25T03:32:09.992Z,0.00
2018-08-25T03:33:09.975Z,0.00
2018-08-25T03:34:09.970Z,0.00
2018-08-25T03:35:09.953Z,0.00
2018-08-25T03:36:09.943Z,0.00
2018-08-25T03:37:09.934Z,0.00
2018-08-25T03:38:09.925Z,0.00
2018-08-25T03:39:09.911Z,0.00
2018-08-25T03:40:09.901Z,0.00
2018-08-25T03:41:09.889Z,0.00
2018-08-25T03:42:09.884Z,0.00
2018-08-25T03:43:09.875Z,0.00
2018-08-25T03:44:09.862Z,0.00
2018-08-25T03:45:09.858Z,0.00
2018-08-25T03:46:09.845Z,0.00
2018-08-25T03:47:09.829Z,0.00
2018-08-25T03:48:09.821Z,0.00
2018-08-25T03:49:09.810Z,0.00
2018-08-25T03:50:09.795Z,0.00
2018-08-25T03:51:09.786Z,0.00
2018-08-25T03:52:09.775Z,0.00
2018-08-25T03:53:09.766Z,0.00
2018-08-25T03:54:09.753Z,0.00
2018-08-25T03:55:09.744Z,0.00
2018-08-25T03:56:09.728Z,0.00
2018-08-25T03:57:09.728Z,0.00
2018-08-25T03:58:09.710Z,0.00
2018-08-25T03:59:09.703Z,0.00
2018-08-25T04:00:09.689Z,0.00
2018-08-25T04:01:09.679Z,0.00
2018-08-25T04:02:09.667Z,0.00
2018-08-25T04:03:09.657Z,0.00
2018-08-25T04:04:09.645Z,0.00
2018-08-25T04:05:09.635Z,0.00
2018-08-25T04:06:09.629Z,0.00
2018-08-25T04:07:09.614Z,0.00
2018-08-25T04:08:09.610Z,0.00
2018-08-25T04:09:09.594Z,0.00
2018-08-25T04:10:09.582Z,0.00
2018-08-25T04:11:09.575Z,0.00
2018-08-25T04:12:09.566Z,0.00
2018-08-25T04:13:09.550Z,0.00
2018-08-25T04:14:09.538Z,0.00
2018-08-25T04:15:09.527Z,0.00
2018-08-25T04:16:09.519Z,0.00
2018-08-25T04:17:09.511Z,0.00
2018-08-25T04:18:09.498Z,0.00
2018-08-25T04:19:09.496Z,0.00
2018-08-25T04:20:09.480Z,0.00
2018-08-25T04:21:09.464Z,0.00
2018-08-25T04:22:09.521Z,0.00
2018-08-25T04:23:09.450Z,0.00
2018-08-25T04:24:09.431Z,0.00
2018-08-25T04:25:09.426Z,0.00
2018-08-25T04:26:09.413Z,0.00
2018-08-25T04:27:09.403Z,0.00
2018-08-25T04:28:09.399Z,0.00
2018-08-25T04:29:09.381Z,0.00
2018-08-25T04:30:09.371Z,0.00
2018-08-25T04:31:09.362Z,0.00
2018-08-25T04:32:09.348Z,0.00
2018-08-25T04:33:09.342Z,0.00
2018-08-25T04:34:09.329Z,0.00
2018-08-25T04:35:09.312Z,0.00
2018-08-25T04:36:09.307Z,0.00
2018-08-25T04:37:09.294Z,4.00
2018-08-25T04:38:09.295Z,0.00
2018-08-25T04:39:09.267Z,0.00
2018-08-25T04:40:09.263Z,0.00
2018-08-25T04:41:09.288Z,4.00
2018-08-25T04:42:09.243Z,4.00
2018-08-25T04:43:09.233Z,4.00
2018-08-25T04:44:09.221Z,4.00
2018-08-25T04:45:09.209Z,0.00
2018-08-25T04:46:09.196Z,0.00
2018-08-25T04:47:09.191Z,4.00
2018-08-25T04:48:09.182Z,4.00
2018-08-25T04:49:09.166Z,4.00
2018-08-25T04:50:09.159Z,4.00
2018-08-25T04:51:09.146Z,4.00
2018-08-25T04:52:09.136Z,4.00
2018-08-25T04:53:09.128Z,4.00
2018-08-25T04:54:09.122Z,8.00
2018-08-25T04:55:09.100Z,8.00
2018-08-25T04:56:09.089Z,4.00
2018-08-25T04:57:09.083Z,8.00
2018-08-25T04:58:09.081Z,8.00
2018-08-25T04:59:09.061Z,12.00
2018-08-25T05:00:09.045Z,8.00
2018-08-25T05:01:09.039Z,12.00
2018-08-25T05:02:09.028Z,12.00
2018-08-25T05:03:09.018Z,12.00
2018-08-25T05:04:09.007Z,12.00
2018-08-25T05:05:08.998Z,12.00
2018-08-25T05:06:08.991Z,16.00
2018-08-25T05:07:08.971Z,16.00
2018-08-25T05:08:08.964Z,16.00
2018-08-25T05:09:08.952Z,12.00
2018-08-25T05:10:08.946Z,16.00
2018-08-25T05:11:08.930Z,12.00
2018-08-25T05:12:08.919Z,16.00
2018-08-25T05:13:08.915Z,16.00
2018-08-25T05:14:08.897Z,16.00
2018-08-25T05:15:08.891Z,16.00
2018-08-25T05:16:08.879Z,16.00
2018-08-25T05:17:08.869Z,20.00
2018-08-25T05:18:08.859Z,20.00
2018-08-25T05:19:08.844Z,20.00
2018-08-25T05:20:08.836Z,20.00
2018-08-25T05:21:08.824Z,24.00
2018-08-25T05:22:08.821Z,24.00
2018-08-25T05:23:08.800Z,24.00
2018-08-25T05:24:08.795Z,20.00
2018-08-25T05:25:08.781Z,20.00
2018-08-25T05:26:08.774Z,20.00
2018-08-25T05:27:08.761Z,24.00
2018-08-25T05:28:08.755Z,28.00
2018-08-25T05:29:08.739Z,28.00
2018-08-25T05:30:08.732Z,24.00
2018-08-25T05:31:08.717Z,28.00
2018-08-25T05:32:08.710Z,28.00
2018-08-25T05:33:08.693Z,28.00
2018-08-25T05:34:08.685Z,28.00
2018-08-25T05:35:08.670Z,28.00
2018-08-25T05:36:08.663Z,28.00
2018-08-25T05:37:08.654Z,28.00
2018-08-25T05:38:08.653Z,28.00
2018-08-25T05:39:08.635Z,28.00
2018-08-25T05:40:08.626Z,32.00
2018-08-25T05:41:08.612Z,32.00
2018-08-25T05:42:08.606Z,40.00
2018-08-25T05:43:08.588Z,40.00
2018-08-25T05:44:08.622Z,40.00
2018-08-25T05:45:08.566Z,40.00
2018-08-25T05:46:08.558Z,44.00
2018-08-25T05:47:08.544Z,44.00
2018-08-25T05:48:08.536Z,52.00
2018-08-25T05:49:08.518Z,52.00
2018-08-25T05:50:08.512Z,52.00
2018-08-25T05:51:08.502Z,60.00
2018-08-25T05:52:08.489Z,64.00
2018-08-25T05:53:08.476Z,68.00
2018-08-25T05:54:08.469Z,64.00
2018-08-25T05:55:08.454Z,60.00
2018-08-25T05:56:08.438Z,56.00
2018-08-25T05:57:08.439Z,52.00
2018-08-25T05:58:08.432Z,56.00
2018-08-25T05:59:08.417Z,60.00
2018-08-25T06:00:08.400Z,60.00
2018-08-25T06:01:08.383Z,60.00
2018-08-25T06:02:08.379Z,60.00
2018-08-25T06:03:08.366Z,52.00
2018-08-25T06:04:08.354Z,52.00
2018-08-25T06:05:08.344Z,52.00
2018-08-25T06:06:08.337Z,48.00
2018-08-25T06:07:08.322Z,48.00
2018-08-25T06:08:08.313Z,48.00
2018-08-25T06:09:08.297Z,48.00
2018-08-25T06:10:08.285Z,52.00
2018-08-25T06:11:08.279Z,52.00
2018-08-25T06:12:08.274Z,56.00
2018-08-25T06:13:08.252Z,56.00
2018-08-25T06:14:08.240Z,60.00
2018-08-25T06:15:08.235Z,60.00
2018-08-25T06:16:08.226Z,64.00
2018-08-25T06:17:08.208Z,64.00
2018-08-25T06:18:08.201Z,60.00
2018-08-25T06:19:08.196Z,60.00
2018-08-25T06:20:08.180Z,56.00
2018-08-25T06:21:08.165Z,52.00
2018-08-25T06:22:08.151Z,52.00
2018-08-25T06:23:08.143Z,48.00
2018-08-25T06:24:08.132Z,52.00
2018-08-25T06:25:08.119Z,52.00
2018-08-25T06:26:08.108Z,48.00
2018-08-25T06:27:08.095Z,52.00
2018-08-25T06:28:08.089Z,56.00
2018-08-25T06:29:08.075Z,56.00
2018-08-25T06:30:08.125Z,60.00
2018-08-25T06:31:08.050Z,60.00
2018-08-25T06:32:08.044Z,68.00
2018-08-25T06:33:08.029Z,72.00
2018-08-25T06:34:08.018Z,76.00
2018-08-25T06:35:08.007Z,72.00
2018-08-25T06:36:08.058Z,76.00
2018-08-25T06:37:07.986Z,80.00
2018-08-25T06:38:07.975Z,80.00
2018-08-25T06:39:07.961Z,80.00
2018-08-25T06:40:07.949Z,72.00
2018-08-25T06:41:07.939Z,68.00
2018-08-25T06:42:07.929Z,64.00
2018-08-25T06:43:07.916Z,64.00
2018-08-25T06:44:07.910Z,64.00
2018-08-25T06:45:07.895Z,64.00
2018-08-25T06:46:07.882Z,72.00
2018-08-25T06:47:07.875Z,72.00
2018-08-25T06:48:07.865Z,80.00
2018-08-25T06:49:07.852Z,84.00
2018-08-25T06:50:07.917Z,88.00
2018-08-25T06:51:07.828Z,96.00
2018-08-25T06:52:07.816Z,96.00
2018-08-25T06:53:07.838Z,108.00
2018-08-25T06:54:07.796Z,108.00
2018-08-25T06:55:07.786Z,112.00
2018-08-25T06:56:07.772Z,128.00
2018-08-25T06:57:07.761Z,140.00
2018-08-25T06:58:07.749Z,144.00
2018-08-25T06:59:07.740Z,132.00
2018-08-25T07:00:07.728Z,120.00
2018-08-25T07:01:07.718Z,120.00
2018-08-25T07:02:07.708Z,128.00
2018-08-25T07:03:07.695Z,140.00
2018-08-25T07:04:07.684Z,136.00
2018-08-25T07:05:07.675Z,128.00
2018-08-25T07:06:07.710Z,124.00
2018-08-25T07:07:07.653Z,128.00
2018-08-25T07:08:07.643Z,120.00
2018-08-25T07:09:07.629Z,116.00
2018-08-25T07:10:07.623Z,136.00
2018-08-25T07:11:07.612Z,148.00
2018-08-25T07:12:07.608Z,152.00
2018-08-25T07:13:07.587Z,160.00
2018-08-25T07:14:07.576Z,164.00
2018-08-25T07:15:07.568Z,180.00
2018-08-25T07:16:07.554Z,184.00
2018-08-25T07:17:07.544Z,164.00
2018-08-25T07:18:07.532Z,148.00
2018-08-25T07:19:07.597Z,156.00
2018-08-25T07:20:07.513Z,188.00
2018-08-25T07:21:07.499Z,208.00
2018-08-25T07:22:07.487Z,232.00
2018-08-25T07:23:07.475Z,232.00
2018-08-25T07:24:07.466Z,224.00
2018-08-25T07:25:07.461Z,220.00
2018-08-25T07:26:07.476Z,228.00
2018-08-25T07:27:07.434Z,244.00
2018-08-25T07:28:07.426Z,232.00
2018-08-25T07:29:07.416Z,236.00
2018-08-25T07:30:07.404Z,252.00
2018-08-25T07:31:07.391Z,264.00
2018-08-25T07:32:07.474Z,296.00
2018-08-25T07:33:07.370Z,328.00
2018-08-25T07:34:07.357Z,360.00
2018-08-25T07:35:07.348Z,388.00
2018-08-25T07:36:07.341Z,420.00
2018-08-25T07:37:07.322Z,444.00
2018-08-25T07:38:07.336Z,440.00
2018-08-25T07:39:07.308Z,440.00
2018-08-25T07:40:07.294Z,448.00
2018-08-25T07:41:07.288Z,456.00
2018-08-25T07:42:07.279Z,460.00
2018-08-25T07:43:07.262Z,464.00
2018-08-25T07:44:07.249Z,464.00
2018-08-25T07:45:07.262Z,464.00
2018-08-25T07:46:07.231Z,472.00
2018-08-25T07:47:07.228Z,480.00
2018-08-25T07:48:07.217Z,492.00
2018-08-25T07:49:07.208Z,516.00
2018-08-25T07:50:07.190Z,528.00
2018-08-25T07:51:07.183Z,544.00
2018-08-25T07:52:07.167Z,544.00
2018-08-25T07:53:07.161Z,512.00
2018-08-25T07:54:07.153Z,492.00
2018-08-25T07:55:07.141Z,476.00
2018-08-25T07:56:07.132Z,464.00
2018-08-25T07:57:07.116Z,472.00
2018-08-25T07:58:07.106Z,452.00
2018-08-25T07:59:07.098Z,456.00
2018-08-25T08:00:07.086Z,440.00
2018-08-25T08:01:07.071Z,432.00
2018-08-25T08:02:07.064Z,424.00
2018-08-25T08:03:07.052Z,428.00
2018-08-25T08:04:07.040Z,504.00
2018-08-25T08:05:07.034Z,572.00
2018-08-25T08:06:07.021Z,604.00
2018-08-25T08:07:07.018Z,680.00
2018-08-25T08:08:07.001Z,756.00
2018-08-25T08:09:06.994Z,816.00
2018-08-25T08:10:06.982Z,884.00
2018-08-25T08:11:06.972Z,916.00
2018-08-25T08:12:07.017Z,940.00
2018-08-25T08:13:06.954Z,948.00
2018-08-25T08:14:06.945Z,960.00
2018-08-25T08:15:06.930Z,900.00
2018-08-25T08:16:06.918Z,776.00
2018-08-25T08:17:06.908Z,708.00
2018-08-25T08:18:06.895Z,656.00
2018-08-25T08:19:06.891Z,652.00
2018-08-25T08:20:06.880Z,688.00
2018-08-25T08:21:06.867Z,708.00
2018-08-25T08:22:06.858Z,692.00
2018-08-25T08:23:06.851Z,712.00
2018-08-25T08:24:06.843Z,816.00
2018-08-25T08:25:06.825Z,1092.00
2018-08-25T08:26:06.821Z,1324.00
2018-08-25T08:27:06.812Z,1224.00
2018-08-25T08:28:06.799Z,944.00
2018-08-25T08:29:06.784Z,896.00
2018-08-25T08:30:06.779Z,860.00
2018-08-25T08:31:06.770Z,860.00
2018-08-25T08:32:06.762Z,796.00
2018-08-25T08:33:06.837Z,736.00
2018-08-25T08:34:06.740Z,692.00
2018-08-25T08:35:06.725Z,668.00
2018-08-25T08:36:06.722Z,656.00
2018-08-25T08:37:06.711Z,660.00
2018-08-25T08:38:06.691Z,660.00
2018-08-25T08:39:06.692Z,656.00
2018-08-25T08:40:06.684Z,664.00
2018-08-25T08:41:06.670Z,680.00
2018-08-25T08:42:06.674Z,696.00
2018-08-25T08:43:06.656Z,708.00
2018-08-25T08:44:06.641Z,728.00
2018-08-25T08:45:06.630Z,756.00
2018-08-25T08:46:06.624Z,800.00
2018-08-25T08:47:06.615Z,864.00
2018-08-25T08:48:06.601Z,952.00
2018-08-25T08:49:06.593Z,1084.00
2018-08-25T08:50:06.578Z,1128.00
2018-08-25T08:51:06.567Z,996.00
2018-08-25T08:52:06.559Z,904.00
2018-08-25T08:53:06.557Z,876.00
2018-08-25T08:54:06.543Z,844.00
2018-08-25T08:55:06.536Z,808.00
2018-08-25T08:56:06.523Z,788.00
2018-08-25T08:57:06.504Z,772.00
2018-08-25T08:58:06.531Z,752.00
2018-08-25T08:59:06.500Z,744.00
2018-08-25T09:00:06.479Z,744.00
2018-08-25T09:01:06.473Z,740.00
2018-08-25T09:02:06.464Z,728.00
2018-08-25T09:03:06.457Z,708.00
2018-08-25T09:04:06.439Z,684.00
2018-08-25T09:05:06.431Z,668.00
2018-08-25T09:06:06.419Z,656.00
2018-08-25T09:07:06.411Z,648.00
2018-08-25T09:08:06.408Z,652.00
2018-08-25T09:09:06.395Z,644.00
2018-08-25T09:10:06.379Z,632.00
2018-08-25T09:11:06.376Z,624.00
2018-08-25T09:12:06.362Z,616.00
2018-08-25T09:13:06.359Z,612.00
2018-08-25T09:14:06.348Z,608.00
2018-08-25T09:15:06.338Z,608.00
2018-08-25T09:16:06.326Z,600.00
2018-08-25T09:17:06.317Z,608.00
2018-08-25T09:18:06.307Z,608.00
2018-08-25T09:19:06.305Z,620.00
2018-08-25T09:20:06.287Z,628.00
2018-08-25T09:21:06.278Z,628.00
2018-08-25T09:22:06.259Z,632.00
2018-08-25T09:23:06.256Z,652.00
2018-08-25T09:24:06.247Z,680.00
2018-08-25T09:25:06.236Z,712.00
2018-08-25T09:26:06.229Z,724.00
2018-08-25T09:27:06.215Z,724.00
2018-08-25T09:28:06.212Z,716.00
2018-08-25T09:29:06.201Z,704.00
2018-08-25T09:30:06.186Z,688.00
2018-08-25T09:31:06.174Z,672.00
2018-08-25T09:32:06.166Z,656.00
2018-08-25T09:33:06.154Z,640.00
2018-08-25T09:34:06.147Z,624.00
2018-08-25T09:35:06.144Z,632.00
2018-08-25T09:36:06.188Z,652.00
2018-08-25T09:37:06.191Z,684.00
2018-08-25T09:38:06.105Z,704.00
2018-08-25T09:39:06.092Z,724.00
2018-08-25T09:40:06.089Z,752.00
2018-08-25T09:41:06.077Z,768.00
2018-08-25T09:42:06.069Z,752.00
2018-08-25T09:43:06.056Z,708.00
2018-08-25T09:44:06.042Z,668.00
2018-08-25T09:45:06.041Z,636.00
2018-08-25T09:46:06.025Z,620.00
2018-08-25T09:47:06.071Z,616.00
2018-08-25T09:48:06.009Z,612.00
2018-08-25T09:49:05.997Z,612.00
2018-08-25T09:50:05.987Z,608.00
2018-08-25T09:51:05.974Z,592.00
2018-08-25T09:52:05.971Z,576.00
2018-08-25T09:53:05.952Z,548.00
2018-08-25T09:54:05.951Z,524.00
2018-08-25T09:55:05.934Z,500.00
2018-08-25T09:56:05.922Z,484.00
2018-08-25T09:57:05.919Z,460.00
2018-08-25T09:58:05.908Z,440.00
2018-08-25T09:59:06.041Z,420.00
2018-08-25T10:00:05.889Z,404.00
2018-08-25T10:01:05.879Z,388.00
2018-08-25T10:02:05.865Z,380.00
2018-08-25T10:03:05.857Z,380.00
2018-08-25T10:04:05.848Z,384.00
2018-08-25T10:05:05.893Z,400.00
2018-08-25T10:06:05.828Z,404.00
2018-08-25T10:07:05.818Z,388.00
2018-08-25T10:08:05.821Z,380.00
2018-08-25T10:09:05.810Z,388.00
2018-08-25T10:10:05.781Z,388.00
2018-08-25T10:11:05.778Z,380.00
2018-08-25T10:12:05.764Z,372.00
2018-08-25T10:13:05.754Z,376.00
2018-08-25T10:14:05.740Z,384.00
2018-08-25T10:15:05.736Z,396.00
2018-08-25T10:16:05.725Z,400.00
2018-08-25T10:17:05.713Z,396.00
2018-08-25T10:18:05.703Z,396.00
2018-08-25T10:19:05.697Z,388.00
2018-08-25T10:20:05.688Z,388.00
2018-08-25T10:21:05.675Z,376.00
2018-08-25T10:22:05.661Z,360.00
2018-08-25T10:23:05.712Z,348.00
2018-08-25T10:24:05.646Z,328.00
2018-08-25T10:25:05.635Z,324.00
2018-08-25T10:26:05.619Z,316.00
2018-08-25T10:27:05.608Z,316.00
2018-08-25T10:28:05.599Z,300.00
2018-08-25T10:29:05.684Z,292.00
2018-08-25T10:30:05.583Z,280.00
2018-08-25T10:31:05.568Z,276.00
2018-08-25T10:32:05.557Z,280.00
2018-08-25T10:33:05.551Z,288.00
2018-08-25T10:34:05.540Z,292.00
2018-08-25T10:35:05.528Z,300.00
2018-08-25T10:36:05.520Z,308.00
2018-08-25T10:37:05.509Z,312.00
2018-08-25T10:38:05.500Z,308.00
2018-08-25T10:39:05.493Z,296.00
2018-08-25T10:40:05.483Z,284.00
2018-08-25T10:41:05.472Z,280.00
2018-08-25T10:42:05.509Z,272.00
2018-08-25T10:43:05.451Z,264.00
2018-08-25T10:44:05.438Z,252.00
2018-08-25T10:45:05.428Z,240.00
2018-08-25T10:46:05.422Z,224.00
2018-08-25T10:47:05.405Z,212.00
2018-08-25T10:48:05.429Z,196.00
2018-08-25T10:49:05.392Z,184.00
2018-08-25T10:50:05.376Z,180.00
2018-08-25T10:51:05.363Z,176.00
2018-08-25T10:52:05.355Z,176.00
2018-08-25T10:53:05.344Z,184.00
2018-08-25T10:54:05.417Z,200.00
2018-08-25T10:55:05.324Z,208.00
2018-08-25T10:56:05.309Z,212.00
2018-08-25T10:57:05.297Z,208.00
2018-08-25T10:58:05.292Z,196.00
2018-08-25T10:59:05.279Z,184.00
2018-08-25T11:00:05.293Z,176.00
2018-08-25T11:01:05.305Z,172.00
2018-08-25T11:02:05.250Z,180.00
2018-08-25T11:03:05.240Z,188.00
2018-08-25T11:04:05.228Z,204.00
2018-08-25T11:05:05.222Z,216.00
2018-08-25T11:06:05.205Z,224.00
2018-08-25T11:07:05.199Z,228.00
2018-08-25T11:08:05.184Z,224.00
2018-08-25T11:09:05.197Z,216.00
2018-08-25T11:10:05.164Z,204.00
2018-08-25T11:11:05.161Z,196.00
2018-08-25T11:12:05.143Z,184.00
2018-08-25T11:13:05.136Z,180.00
2018-08-25T11:14:05.122Z,172.00
2018-08-25T11:15:05.119Z,168.00
2018-08-25T11:16:05.103Z,168.00
2018-08-25T11:17:05.093Z,168.00
2018-08-25T11:18:05.084Z,172.00
2018-08-25T11:19:05.076Z,172.00
2018-08-25T11:20:05.058Z,172.00
2018-08-25T11:21:05.055Z,176.00
2018-08-25T11:22:05.046Z,180.00
2018-08-25T11:23:05.030Z,192.00
2018-08-25T11:24:05.025Z,204.00
2018-08-25T11:25:05.008Z,204.00
2018-08-25T11:26:04.995Z,204.00
2018-08-25T11:27:04.993Z,204.00
2018-08-25T11:28:04.979Z,200.00
2018-08-25T11:29:05.003Z,200.00
2018-08-25T11:30:04.955Z,192.00
2018-08-25T11:31:04.947Z,184.00
2018-08-25T11:32:04.931Z,180.00
2018-08-25T11:33:04.925Z,176.00
2018-08-25T11:34:04.914Z,172.00
2018-08-25T11:35:04.906Z,172.00
2018-08-25T11:36:04.892Z,172.00
2018-08-25T11:37:04.923Z,184.00
2018-08-25T11:38:04.954Z,204.00
2018-08-25T11:39:04.864Z,208.00
2018-08-25T11:40:04.854Z,200.00
2018-08-25T11:41:04.840Z,180.00
2018-08-25T11:42:04.832Z,160.00
2018-08-25T11:43:04.817Z,144.00
2018-08-25T11:44:04.830Z,136.00
2018-08-25T11:45:04.801Z,128.00
2018-08-25T11:46:04.794Z,132.00
2018-08-25T11:47:04.778Z,132.00
2018-08-25T11:48:04.786Z,136.00
2018-08-25T11:49:04.764Z,140.00
2018-08-25T11:50:04.787Z,160.00
2018-08-25T11:51:04.733Z,180.00
2018-08-25T11:52:04.749Z,208.00
2018-08-25T11:53:04.719Z,232.00
2018-08-25T11:54:04.754Z,252.00
2018-08-25T11:55:04.695Z,260.00
2018-08-25T11:56:04.683Z,264.00
2018-08-25T11:57:04.669Z,268.00
2018-08-25T11:58:04.673Z,268.00
2018-08-25T11:59:04.654Z,268.00
2018-08-25T12:00:04.640Z,264.00
2018-08-25T12:01:04.631Z,260.00
2018-08-25T12:02:04.665Z,252.00
2018-08-25T12:03:04.608Z,252.00
2018-08-25T12:04:04.602Z,260.00
2018-08-25T12:05:04.588Z,264.00
2018-08-25T12:06:04.576Z,268.00
2018-08-25T12:07:04.563Z,280.00
2018-08-25T12:08:04.555Z,296.00
2018-08-25T12:09:04.546Z,308.00
2018-08-25T12:10:04.535Z,320.00
2018-08-25T12:11:04.528Z,332.00
2018-08-25T12:12:04.516Z,340.00
2018-08-25T12:13:04.501Z,352.00
2018-08-25T12:14:04.490Z,376.00
2018-08-25T12:15:04.481Z,392.00
2018-08-25T12:16:04.470Z,404.00
2018-08-25T12:17:04.463Z,420.00
2018-08-25T12:18:04.446Z,436.00
2018-08-25T12:19:04.440Z,440.00
2018-08-25T12:20:04.429Z,440.00
2018-08-25T12:21:04.420Z,440.00
2018-08-25T12:22:04.407Z,424.00
2018-08-25T12:23:04.396Z,404.00
2018-08-25T12:24:04.429Z,380.00
2018-08-25T12:25:04.379Z,384.00
2018-08-25T12:26:04.362Z,392.00
2018-08-25T12:27:04.359Z,396.00
2018-08-25T12:28:04.347Z,412.00
2018-08-25T12:29:04.332Z,428.00
2018-08-25T12:30:04.344Z,436.00
2018-08-25T12:31:04.308Z,440.00
2018-08-25T12:32:04.304Z,456.00
2018-08-25T12:33:04.289Z,472.00
2018-08-25T12:34:04.276Z,472.00
2018-08-25T12:35:04.272Z,472.00
2018-08-25T12:36:04.261Z,460.00
2018-08-25T12:37:04.251Z,456.00
2018-08-25T12:38:04.234Z,464.00
2018-08-25T12:39:04.279Z,476.00
2018-08-25T12:40:04.223Z,492.00
2018-08-25T12:41:04.216Z,508.00
2018-08-25T12:42:04.194Z,500.00
2018-08-25T12:43:04.208Z,484.00
2018-08-25T12:44:04.176Z,460.00
2018-08-25T12:45:04.252Z,440.00
2018-08-25T12:46:04.152Z,416.00
2018-08-25T12:47:04.140Z,392.00
2018-08-25T12:48:04.130Z,368.00
2018-08-25T12:49:04.127Z,352.00
2018-08-25T12:50:04.114Z,340.00